Time;durP1;ratioP1;P1;durP2;ratioP2;P2;SDS_P1;SDS_P2;PMS_P1;PMS_P2;Temp;Humidity;BMP_temperature;BMP_pressure;BME280_temperature;BME280_humidity;BME280_pressure;Samples;Min_cycle;Max_cycle;Signal;HPM_P1;HPM_P2
2022/04/04 00:00:44;;;;;;;7.63;5.43;;;2.90;79.40;;;;;;10159249;28;20498;-68
2022/04/04 00:05:36;;;;;;;11.82;6.13;;;2.90;79.70;;;;;;10154898;28;20318;-73
2022/04/04 00:10:27;;;;;;;7.75;5.63;;;2.80;80.00;;;;;;10160837;28;20405;-77
2022/04/04 00:15:18;;;;;;;9.45;5.00;;;2.80;80.00;;;;;;10140805;28;20660;-67
2022/04/04 00:20:10;;;;;;;8.80;4.85;;;2.80;80.50;;;;;;10160665;28;20277;-71
2022/04/04 00:25:04;;;;;;;9.15;5.00;;;2.80;80.60;;;;;;10136502;28;20098;-68
2022/04/04 00:29:55;;;;;;;10.13;5.32;;;2.70;81.00;;;;;;10175466;28;20035;-75
2022/04/04 00:34:45;;;;;;;9.43;4.63;;;2.60;81.30;;;;;;10159085;28;20052;-73
2022/04/04 00:39:36;;;;;;;8.23;4.43;;;2.50;81.40;;;;;;10144719;28;20258;-74
2022/04/04 00:44:27;;;;;;;9.07;4.75;;;2.50;81.50;;;;;;10176278;28;20084;-78
2022/04/04 00:49:17;;;;;;;7.35;4.68;;;2.50;81.50;;;;;;10166240;28;20032;-78
2022/04/04 00:54:13;;;;;;;10.73;4.90;;;2.40;81.60;;;;;;10163907;28;20382;-80
2022/04/04 00:59:12;;;;;;;4.47;3.07;;;2.40;81.90;;;;;;10164759;28;20469;-76
2022/04/04 01:04:03;;;;;;;9.68;4.47;;;2.30;82.20;;;;;;10159646;28;20020;-78
2022/04/04 01:08:53;;;;;;;7.63;4.28;;;2.30;82.30;;;;;;10155217;28;20028;-76
2022/04/04 01:13:46;;;;;;;8.43;4.55;;;2.30;82.30;;;;;;10165990;28;20111;-73
2022/04/04 01:18:36;;;;;;;9.30;5.15;;;2.20;82.30;;;;;;10161881;28;20105;-78
2022/04/04 01:23:40;;;;;;;6.90;4.40;;;2.20;82.70;;;;;;10165808;28;20360;-78
2022/04/04 01:28:31;;;;;;;7.72;4.72;;;2.20;82.90;;;;;;10183740;28;20043;-80
2022/04/04 01:33:22;;;;;;;9.20;4.53;;;2.10;83.10;;;;;;10179488;28;20021;-75
2022/04/04 01:38:15;;;;;;;9.32;4.65;;;2.10;83.00;;;;;;10179185;28;20048;-82
2022/04/04 01:43:06;;;;;;;8.35;4.40;;;2.00;83.20;;;;;;10171277;28;20036;-79
2022/04/04 01:47:56;;;;;;;7.05;4.68;;;2.00;83.20;;;;;;10155919;28;20047;-74
2022/04/04 01:53:25;;;;;;;6.28;3.85;;;2.00;83.40;;;;;;10154911;28;20388;-76
2022/04/04 01:57:58;;;;;;;6.32;3.20;;;2.00;83.40;;;;;;10166317;28;20404;-78
2022/04/04 02:02:48;;;;;;;7.93;3.90;;;2.00;83.80;;;;;;10152991;28;20336;-79
2022/04/04 02:07:39;;;;;;;7.28;4.15;;;1.90;84.00;;;;;;10159471;28;20112;-73
2022/04/04 02:12:30;;;;;;;6.63;3.55;;;1.80;84.30;;;;;;10147341;28;20569;-78
2022/04/04 02:17:21;;;;;;;6.80;3.65;;;1.80;84.80;;;;;;10158087;28;20376;-68
2022/04/04 02:22:12;;;;;;;6.60;3.33;;;1.80;84.90;;;;;;10142773;28;20016;-67
2022/04/04 02:27:03;;;;;;;7.07;3.47;;;1.70;85.30;;;;;;10166191;28;20040;-74
2022/04/04 02:31:54;;;;;;;8.05;3.90;;;1.70;85.30;;;;;;10155415;28;20028;-68
2022/04/04 02:36:45;;;;;;;8.30;4.15;;;1.70;85.40;;;;;;10151890;28;20056;-73
2022/04/04 02:41:35;;;;;;;4.53;3.40;;;1.60;85.50;;;;;;10159743;28;20423;-77
2022/04/04 02:46:26;;;;;;;4.93;3.38;;;1.50;86.30;;;;;;10156058;28;20032;-78
2022/04/04 02:51:17;;;;;;;6.38;3.15;;;1.60;86.00;;;;;;10165386;28;20099;-77
2022/04/04 03:01:19;;;;;;;5.50;2.65;;;1.40;86.40;;;;;;10157495;28;20074;-77
2022/04/04 03:06:09;;;;;;;7.00;3.10;;;1.40;86.50;;;;;;10149649;28;20123;-75
2022/04/04 03:11:00;;;;;;;5.78;3.28;;;1.40;86.60;;;;;;10171371;28;20103;-77
2022/04/04 03:15:51;;;;;;;6.47;3.15;;;1.40;86.70;;;;;;10168164;28;20269;-74
2022/04/04 03:20:41;;;;;;;4.15;3.35;;;1.40;86.70;;;;;;10155614;28;20036;-74
2022/04/04 03:25:32;;;;;;;7.82;4.07;;;1.40;87.10;;;;;;10167538;28;20039;-76
2022/04/04 03:30:25;;;;;;;6.75;3.35;;;1.30;87.40;;;;;;10152322;28;20284;-72
2022/04/04 03:35:18;;;;;;;6.07;3.70;;;1.30;87.50;;;;;;10156872;28;20635;-75
2022/04/04 03:40:12;;;;;;;7.05;3.80;;;1.20;87.80;;;;;;10151610;28;20257;-73
2022/04/04 03:45:06;;;;;;;7.47;4.20;;;1.20;87.70;;;;;;10133188;28;20016;-74
2022/04/04 03:49:59;;;;;;;6.00;2.97;;;1.20;87.90;;;;;;10156441;28;20570;-72
2022/04/04 03:54:49;;;;;;;8.95;4.97;;;1.20;88.00;;;;;;10154112;28;20119;-72
2022/04/04 03:59:40;;;;;;;9.30;4.45;;;1.10;88.20;;;;;;10155791;28;20044;-72
2022/04/04 04:04:31;;;;;;;7.97;3.65;;;1.10;88.40;;;;;;10142816;28;20051;-74
2022/04/04 04:09:21;;;;;;;7.50;4.55;;;1.00;88.50;;;;;;10130558;28;20115;-72
2022/04/04 04:14:12;;;;;;;7.60;3.60;;;0.90;88.80;;;;;;10168584;28;20017;-73
2022/04/04 04:19:03;;;;;;;5.40;3.67;;;0.90;89.00;;;;;;10154091;28;20069;-72
2022/04/04 04:23:54;;;;;;;7.07;3.75;;;0.80;89.40;;;;;;10150775;28;20116;-72
2022/04/04 04:28:46;;;;;;;6.55;3.83;;;0.90;89.10;;;;;;10149320;28;20472;-65
2022/04/04 04:33:37;;;;;;;6.63;3.85;;;0.80;89.00;;;;;;10142839;28;20473;-72
2022/04/04 04:38:29;;;;;;;7.10;3.75;;;0.80;89.10;;;;;;10132667;28;20050;-68
2022/04/04 04:43:20;;;;;;;8.18;3.70;;;0.80;89.10;;;;;;10156133;28;20039;-70
2022/04/04 04:48:11;;;;;;;9.20;3.80;;;0.70;89.20;;;;;;10159737;28;20032;-71
2022/04/04 04:53:02;;;;;;;9.40;3.67;;;0.60;89.60;;;;;;10160252;28;20028;-70
2022/04/04 04:57:54;;;;;;;5.90;3.90;;;0.60;89.70;;;;;;10154009;28;20391;-70
2022/04/04 05:02:44;;;;;;;7.45;4.47;;;0.50;90.30;;;;;;10162161;28;20031;-69
2022/04/04 05:07:35;;;;;;;9.15;4.68;;;0.50;90.00;;;;;;10150334;28;20424;-68
2022/04/04 05:12:26;;;;;;;7.90;3.80;;;0.50;90.10;;;;;;10157959;28;20080;-67
2022/04/04 05:17:16;;;;;;;9.43;4.38;;;0.60;90.00;;;;;;10172674;28;20048;-70
2022/04/04 05:22:07;;;;;;;11.15;4.18;;;0.50;90.10;;;;;;10157802;28;20028;-67
2022/04/04 05:26:58;;;;;;;8.02;4.55;;;0.50;90.00;;;;;;10160022;28;20028;-68
2022/04/04 05:31:49;;;;;;;7.70;3.60;;;0.50;90.00;;;;;;10163390;28;20027;-69
2022/04/04 05:36:39;;;;;;;7.60;3.55;;;0.50;90.30;;;;;;10144340;28;20041;-69
2022/04/04 05:41:31;;;;;;;6.18;2.90;;;0.40;90.20;;;;;;10134074;28;20509;-70
2022/04/04 05:46:22;;;;;;;6.90;3.50;;;0.50;90.30;;;;;;10149554;28;20264;-67
2022/04/04 05:51:15;;;;;;;7.72;4.55;;;0.40;90.20;;;;;;10158906;28;20083;-68
2022/04/04 05:56:06;;;;;;;5.35;3.65;;;0.50;90.30;;;;;;10167127;28;20043;-73
2022/04/04 06:00:57;;;;;;;9.90;4.47;;;0.50;90.40;;;;;;10158558;28;20036;-71
2022/04/04 06:05:49;;;;;;;7.72;4.03;;;0.50;90.30;;;;;;10166016;28;20418;-71
2022/04/04 06:10:40;;;;;;;9.07;4.07;;;0.70;90.40;;;;;;10142754;28;20031;-67
2022/04/04 06:15:31;;;;;;;7.03;2.38;;;0.80;90.20;;;;;;10165013;28;20037;-70
2022/04/04 06:20:22;;;;;;;7.25;3.13;;;0.90;90.40;;;;;;10160807;28;20454;-69
2022/04/04 06:25:13;;;;;;;6.40;4.00;;;1.00;90.30;;;;;;10150674;28;20036;-70
2022/04/04 06:30:04;;;;;;;6.65;3.50;;;1.10;90.30;;;;;;10159649;28;20520;-67
2022/04/04 06:34:55;;;;;;;4.07;2.58;;;1.30;90.10;;;;;;10166320;28;20044;-70
2022/04/04 06:39:46;;;;;;;5.75;3.30;;;1.40;90.20;;;;;;10143355;28;20549;-73
2022/04/04 06:44:37;;;;;;;8.20;3.28;;;1.40;90.20;;;;;;10162339;28;20036;-65
2022/04/04 06:49:28;;;;;;;5.68;3.38;;;1.50;90.30;;;;;;10162425;28;20023;-68
2022/04/04 06:54:19;;;;;;;5.65;3.38;;;1.60;90.10;;;;;;10143168;28;20026;-65
2022/04/04 06:59:10;;;;;;;4.95;3.20;;;1.70;90.10;;;;;;10167397;28;20101;-65
2022/04/04 07:04:02;;;;;;;5.07;3.25;;;1.80;90.10;;;;;;10163569;28;20058;-64
2022/04/04 07:08:53;;;;;;;6.30;3.25;;;1.90;90.10;;;;;;10162974;28;20582;-67
2022/04/04 07:13:44;;;;;;;5.15;2.97;;;2.00;90.00;;;;;;10138060;28;20043;-68
2022/04/04 07:18:35;;;;;;;6.38;2.28;;;2.10;90.00;;;;;;10162711;28;20173;-68
2022/04/04 07:23:25;;;;;;;6.00;2.92;;;2.10;89.90;;;;;;10147119;28;20112;-69
2022/04/04 07:28:16;;;;;;;5.30;2.72;;;2.20;90.20;;;;;;10157826;28;20341;-72
2022/04/04 07:33:15;;;;;;;7.88;3.75;;;2.30;89.70;;;;;;10160121;28;20125;-73
2022/04/04 07:38:06;;;;;;;6.25;3.28;;;2.40;89.60;;;;;;10163936;28;20036;-70
2022/04/04 07:42:56;;;;;;;5.85;3.45;;;2.50;89.50;;;;;;10165116;28;20032;-72
2022/04/04 07:47:49;;;;;;;6.35;4.00;;;2.60;88.90;;;;;;10160726;28;20025;-70
2022/04/04 07:52:40;;;;;;;7.35;3.50;;;2.70;88.80;;;;;;10158493;28;20054;-71
2022/04/04 07:57:31;;;;;;;4.63;3.28;;;2.80;88.60;;;;;;10167997;28;20113;-73
2022/04/04 08:02:23;;;;;;;5.38;3.53;;;3.00;88.50;;;;;;10147701;28;20021;-76
2022/04/04 08:07:15;;;;;;;6.20;3.38;;;3.20;87.90;;;;;;10155149;28;20032;-74
2022/04/04 08:12:06;;;;;;;5.45;3.42;;;3.30;87.70;;;;;;10153595;28;20029;-72
2022/04/04 08:16:57;;;;;;;7.07;3.95;;;3.50;87.80;;;;;;10165431;28;20040;-72
2022/04/04 08:21:48;;;;;;;5.07;2.92;;;3.70;87.30;;;;;;10143789;28;20021;-64
2022/04/04 08:26:40;;;;;;;5.28;3.15;;;3.80;87.20;;;;;;10160496;28;20086;-71
2022/04/04 08:31:31;;;;;;;5.75;3.05;;;4.00;86.70;;;;;;10163392;28;20032;-67
2022/04/04 08:36:22;;;;;;;9.40;3.17;;;4.00;86.90;;;;;;10164449;28;20209;-72
2022/04/04 08:41:12;;;;;;;4.30;3.38;;;4.10;86.70;;;;;;10162171;28;20632;-67
2022/04/04 08:46:06;;;;;;;5.93;3.47;;;4.30;86.40;;;;;;10146219;28;20439;-66
2022/04/04 08:50:58;;;;;;;7.35;3.42;;;4.50;86.20;;;;;;10155686;28;20141;-66
2022/04/04 08:55:49;;;;;;;6.30;3.53;;;4.60;85.80;;;;;;10150760;28;20040;-67
2022/04/04 09:00:40;;;;;;;7.35;3.42;;;4.80;85.70;;;;;;10150778;28;20036;-66
2022/04/04 09:05:55;;;;;;;7.43;3.72;;;4.90;85.50;;;;;;10161742;28;20030;-65
2022/04/04 09:10:46;;;;;;;5.55;4.10;;;5.00;84.90;;;;;;10161700;28;20039;-65
2022/04/04 09:16:02;;;;;;;4.60;3.17;;;5.10;84.90;;;;;;10168555;28;20032;-65
2022/04/04 09:20:53;;;;;;;7.20;3.08;;;5.30;84.90;;;;;;10145162;28;20101;-65
2022/04/04 09:25:44;;;;;;;6.00;3.67;;;5.60;84.00;;;;;;10172018;28;20129;-67
2022/04/04 09:30:35;;;;;;;7.03;4.20;;;5.70;83.50;;;;;;10161963;28;20075;-64
2022/04/04 09:35:29;;;;;;;4.72;2.90;;;5.90;83.80;;;;;;10167001;28;20036;-65
2022/04/04 09:40:25;;;;;;;6.97;4.18;;;6.10;83.20;;;;;;10167201;28;20522;-68
2022/04/04 09:45:16;;;;;;;4.90;3.45;;;6.10;82.70;;;;;;10165595;28;20550;-72
2022/04/04 09:50:06;;;;;;;4.50;3.65;;;6.20;82.30;;;;;;10167626;28;20043;-74
2022/04/04 09:54:57;;;;;;;6.65;3.80;;;6.30;81.20;;;;;;10163104;28;20024;-70
2022/04/04 09:59:51;;;;;;;6.05;3.47;;;6.40;80.40;;;;;;10168135;28;20032;-72
2022/04/04 10:04:47;;;;;;;6.55;3.63;;;6.60;81.20;;;;;;10167464;28;20510;-64
2022/04/04 10:09:37;;;;;;;;;;;6.90;80.30;;;;;;10162671;28;20028;-62
2022/04/04 10:14:34;;;;;;;5.40;3.50;;;6.80;78.20;;;;;;10150624;28;19995;-62
2022/04/04 10:19:27;;;;;;;5.45;3.65;;;6.90;78.80;;;;;;10148876;28;20247;-64
2022/04/04 10:24:18;;;;;;;9.77;4.63;;;7.10;78.60;;;;;;10166892;28;20472;-63
2022/04/04 10:29:09;;;;;;;6.20;2.95;;;7.20;78.40;;;;;;10163411;28;20561;-65
2022/04/04 10:34:11;;;;;;;4.55;3.10;;;7.20;77.40;;;;;;10143793;28;20262;-66
2022/04/04 10:39:02;;;;;;;6.35;2.97;;;7.10;77.10;;;;;;10166747;28;20466;-64
2022/04/04 10:43:55;;;;;;;6.40;3.72;;;7.30;76.90;;;;;;10163304;28;20259;-65
2022/04/04 10:49:03;;;;;;;4.07;3.22;;;7.50;76.10;;;;;;10149841;28;20031;-65
2022/04/04 10:53:57;;;;;;;4.28;3.20;;;7.60;75.20;;;;;;10154761;28;20023;-64
2022/04/04 10:58:49;;;;;;;5.22;3.28;;;7.70;74.40;;;;;;10150518;28;20093;-63
2022/04/04 11:03:42;;;;;;;4.72;2.42;;;7.30;74.10;;;;;;10156793;28;20106;-64
2022/04/04 11:08:33;;;;;;;4.18;2.70;;;7.40;72.30;;;;;;10160857;28;20588;-65
2022/04/04 11:13:24;;;;;;;5.47;4.03;;;7.60;71.50;;;;;;10155424;28;20078;-64
2022/04/04 11:18:15;;;;;;;7.53;4.20;;;7.40;73.10;;;;;;10157127;28;20036;-63
2022/04/04 11:23:11;;;;;;;6.03;3.50;;;7.70;72.20;;;;;;10133570;28;20025;-64
2022/04/04 11:28:02;;;;;;;5.15;4.47;;;7.90;70.90;;;;;;10155754;28;20040;-63
2022/04/04 11:32:54;;;;;;;5.00;3.17;;;8.30;71.70;;;;;;10154359;28;20033;-63
2022/04/04 11:37:48;;;;;;;5.00;3.63;;;8.40;70.60;;;;;;10151425;28;20064;-64
2022/04/04 11:42:46;;;;;;;4.83;3.50;;;8.30;68.70;;;;;;10158999;28;20044;-63
2022/04/04 11:47:40;;;;;;;5.10;3.70;;;8.50;68.80;;;;;;10155458;28;20089;-63
2022/04/04 11:52:47;;;;;;;5.30;3.03;;;8.50;68.60;;;;;;10142281;28;20119;-62
2022/04/04 11:57:38;;;;;;;4.65;2.88;;;8.70;68.10;;;;;;10161598;28;20064;-63
2022/04/04 12:02:30;;;;;;;5.38;3.80;;;8.70;67.20;;;;;;10163823;28;20082;-66
2022/04/04 12:07:21;;;;;;;4.43;3.17;;;8.90;66.30;;;;;;10156742;28;20042;-64
2022/04/04 12:12:13;;;;;;;4.65;2.78;;;8.90;66.00;;;;;;10160540;28;20396;-63
2022/04/04 12:17:14;;;;;;;6.07;3.08;;;8.90;63.60;;;;;;10160518;28;20020;-63
2022/04/04 12:24:54;;;;;;;4.20;3.25;;;9.30;62.80;;;;;;10163795;28;20394;-62
2022/04/04 12:27:16;;;;;;;5.00;3.40;;;9.30;61.20;;;;;;10166854;28;20016;-66
2022/04/04 12:32:19;;;;;;;4.15;3.70;;;9.50;62.10;;;;;;10168102;28;20040;-62
2022/04/04 12:37:10;;;;;;;3.45;2.97;;;9.90;60.60;;;;;;10167373;28;20556;-64
2022/04/04 12:42:07;;;;;;;3.28;2.83;;;10.20;60.60;;;;;;10166712;28;20042;-65
2022/04/04 12:47:06;;;;;;;5.95;3.20;;;10.40;60.10;;;;;;10168544;28;20028;-62
2022/04/04 12:52:00;;;;;;;5.35;4.20;;;10.70;58.50;;;;;;10167331;28;20115;-64
2022/04/04 12:56:50;;;;;;;9.18;5.15;;;10.80;61.50;;;;;;10167062;28;20085;-64
2022/04/04 13:01:41;;;;;;;5.00;3.80;;;11.00;61.30;;;;;;10170064;28;20028;-64
2022/04/04 13:06:33;;;;;;;5.15;3.25;;;11.20;62.60;;;;;;10164956;28;20028;-62
2022/04/04 13:11:26;;;;;;;4.95;4.00;;;11.50;61.70;;;;;;10168250;28;20051;-62
2022/04/04 13:16:56;;;;;;;5.03;3.65;;;11.90;62.90;;;;;;10169157;28;20067;-62
2022/04/04 13:21:48;;;;;;;5.25;3.85;;;12.90;60.90;;;;;;10123482;28;20123;-64
2022/04/04 13:26:40;;;;;;;3.92;3.63;;;13.30;59.90;;;;;;10166446;28;20036;-64
2022/04/04 13:31:30;;;;;;;5.65;4.13;;;14.90;58.40;;;;;;10165349;28;20085;-63
2022/04/04 13:36:23;;;;;;;4.45;3.83;;;17.10;55.40;;;;;;10166383;28;20052;-62
2022/04/04 13:41:15;;;;;;;4.35;3.60;;;16.30;52.40;;;;;;10144488;28;20117;-64
2022/04/04 13:46:06;;;;;;;4.50;3.80;;;16.40;49.90;;;;;;10170453;28;20752;-63
2022/04/04 13:50:57;;;;;;;5.93;4.80;;;17.30;49.10;;;;;;10172711;28;20081;-62
2022/04/04 13:55:47;;;;;;;5.28;3.25;;;14.40;50.90;;;;;;10164103;28;20596;-62
2022/04/04 14:00:38;;;;;;;4.72;3.22;;;14.60;49.30;;;;;;10168733;28;20053;-68
2022/04/04 14:05:29;;;;;;;6.00;4.20;;;13.80;49.40;;;;;;10165328;28;20166;-64
2022/04/04 14:10:20;;;;;;;4.90;3.55;;;12.80;49.30;;;;;;10166012;28;20036;-64
2022/04/04 14:15:11;;;;;;;6.43;3.78;;;12.40;50.00;;;;;;10169467;28;20162;-66
2022/04/04 14:20:07;;;;;;;6.35;3.83;;;12.10;49.60;;;;;;10166174;28;20244;-63
2022/04/04 14:24:58;;;;;;;7.78;4.20;;;12.00;49.40;;;;;;10167328;28;20024;-63
2022/04/04 14:29:49;;;;;;;5.32;4.00;;;11.70;48.90;;;;;;10162759;28;20035;-63
2022/04/04 14:34:40;;;;;;;6.10;4.30;;;11.60;49.00;;;;;;10168902;28;20402;-63
2022/04/04 14:39:33;;;;;;;6.97;4.38;;;11.50;49.10;;;;;;10160237;28;20021;-67
2022/04/04 14:44:23;;;;;;;6.13;3.55;;;11.40;49.10;;;;;;10165291;28;20024;-64
2022/04/04 14:49:14;;;;;;;5.38;3.92;;;11.40;48.90;;;;;;10170941;28;20114;-64
2022/04/04 14:54:05;;;;;;;6.72;3.60;;;11.20;49.00;;;;;;10170537;28;20031;-63
2022/04/04 14:58:57;;;;;;;5.75;3.88;;;11.00;49.40;;;;;;10134642;28;20036;-63
2022/04/04 15:03:47;;;;;;;4.63;3.30;;;11.10;49.40;;;;;;10145821;28;20094;-64
2022/04/04 15:08:38;;;;;;;5.43;3.63;;;11.40;49.10;;;;;;10155283;28;20077;-64
2022/04/04 15:13:29;;;;;;;5.80;3.70;;;11.80;48.80;;;;;;10143845;28;20028;-65
2022/04/04 15:18:21;;;;;;;5.68;3.55;;;11.60;48.80;;;;;;10164753;28;20071;-62
2022/04/04 15:23:12;;;;;;;4.40;3.78;;;11.70;48.80;;;;;;10158747;28;20043;-65
2022/04/04 15:28:02;;;;;;;4.28;3.55;;;11.50;49.50;;;;;;10163423;28;20563;-65
2022/04/04 15:32:53;;;;;;;5.13;4.03;;;11.30;49.70;;;;;;10164417;28;20020;-63
2022/04/04 15:37:44;;;;;;;4.80;4.30;;;11.30;49.80;;;;;;10161034;28;20560;-62
2022/04/04 15:42:35;;;;;;;5.70;3.25;;;11.10;49.60;;;;;;10146592;28;20046;-62
2022/04/04 15:47:26;;;;;;;3.72;2.95;;;11.00;49.70;;;;;;10164252;28;20420;-62
2022/04/04 15:52:17;;;;;;;5.78;2.63;;;11.20;49.80;;;;;;10163583;28;20063;-63
2022/04/04 15:57:08;;;;;;;6.50;3.83;;;11.10;49.60;;;;;;10145072;28;20056;-66
2022/04/04 16:01:59;;;;;;;5.43;3.40;;;11.10;49.80;;;;;;10163951;28;20040;-63
2022/04/04 16:06:50;;;;;;;6.75;3.05;;;11.10;50.70;;;;;;10159143;28;20095;-64
2022/04/04 16:11:40;;;;;;;5.75;3.25;;;11.00;50.30;;;;;;10160731;28;20036;-65
2022/04/04 16:16:34;;;;;;;6.55;3.60;;;10.80;50.50;;;;;;10158352;28;20073;-62
2022/04/04 16:21:25;;;;;;;3.70;2.95;;;10.70;50.50;;;;;;10163690;28;20550;-63
2022/04/04 16:26:16;;;;;;;5.55;3.08;;;10.70;50.50;;;;;;10159115;28;20024;-63
2022/04/04 16:31:07;;;;;;;7.38;3.55;;;10.50;50.60;;;;;;10163365;28;20064;-62
2022/04/04 16:35:58;;;;;;;5.45;3.38;;;10.50;50.90;;;;;;10165924;28;20068;-61
2022/04/04 16:40:49;;;;;;;4.57;3.05;;;10.40;50.90;;;;;;10167853;28;20071;-64
2022/04/04 16:45:40;;;;;;;4.32;3.50;;;10.20;50.90;;;;;;10164361;28;20061;-63
2022/04/04 16:50:31;;;;;;;5.45;3.47;;;10.20;51.10;;;;;;10153738;28;20032;-64
2022/04/04 16:55:22;;;;;;;5.63;4.07;;;10.20;51.20;;;;;;10149684;28;20028;-65
2022/04/04 17:00:13;;;;;;;4.68;3.80;;;10.20;51.30;;;;;;10152615;28;20043;-63
2022/04/04 17:05:04;;;;;;;5.55;3.55;;;10.20;52.10;;;;;;10147482;28;20443;-64
2022/04/04 17:09:55;;;;;;;2.17;1.92;;;10.20;51.50;;;;;;10135897;28;20375;-67
2022/04/04 17:14:46;;;;;;;5.55;3.47;;;10.00;51.30;;;;;;10159392;28;20024;-65
2022/04/04 17:19:36;;;;;;;7.43;4.28;;;10.00;51.50;;;;;;10149268;28;20040;-65
2022/04/04 17:24:28;;;;;;;5.35;3.50;;;10.00;51.60;;;;;;10158622;28;20024;-65
2022/04/04 17:29:19;;;;;;;6.47;4.80;;;10.00;51.80;;;;;;10159158;28;20504;-64
2022/04/04 17:34:11;;;;;;;7.68;4.20;;;9.90;51.80;;;;;;10161342;28;20035;-65
2022/04/04 17:39:02;;;;;;;5.22;4.10;;;9.90;52.00;;;;;;10133644;28;20067;-65
2022/04/04 17:43:53;;;;;;;6.97;3.88;;;9.80;52.10;;;;;;10137840;28;20106;-65
2022/04/04 17:48:44;;;;;;;5.15;3.42;;;9.80;52.30;;;;;;10161569;28;20056;-64
2022/04/04 17:53:35;;;;;;;5.90;3.63;;;9.80;52.50;;;;;;10157162;28;20032;-64
2022/04/04 17:58:26;;;;;;;6.35;3.95;;;9.80;52.40;;;;;;10141624;28;20090;-64
2022/04/04 18:03:17;;;;;;;5.78;3.50;;;9.60;52.50;;;;;;10173183;28;20028;-64
2022/04/04 18:08:10;;;;;;;5.78;3.70;;;9.70;52.70;;;;;;10170279;28;20111;-66
2022/04/04 18:13:01;;;;;;;6.75;4.55;;;9.60;52.90;;;;;;10172611;28;20463;-65
2022/04/04 18:17:53;;;;;;;6.35;3.88;;;9.60;53.00;;;;;;10168381;28;20119;-66
2022/04/04 18:22:44;;;;;;;8.27;4.65;;;9.60;53.20;;;;;;10155344;28;20168;-67
2022/04/04 18:27:35;;;;;;;5.72;4.25;;;9.50;53.30;;;;;;10144197;28;20048;-69
2022/04/04 18:32:26;;;;;;;6.38;3.40;;;9.50;53.40;;;;;;10149270;28;20031;-66
2022/04/04 18:37:16;;;;;;;6.70;3.85;;;9.40;53.70;;;;;;10173129;28;20387;-66
2022/04/04 18:42:07;;;;;;;4.85;3.30;;;9.50;53.80;;;;;;10158374;28;20024;-69
2022/04/04 18:46:59;;;;;;;7.75;4.63;;;9.50;53.90;;;;;;10151575;28;20024;-64
2022/04/04 18:51:53;;;;;;;5.72;3.63;;;9.40;54.00;;;;;;10142471;28;20097;-66
2022/04/04 18:56:44;;;;;;;6.60;4.35;;;9.30;54.30;;;;;;10160688;28;20102;-65
2022/04/04 19:01:37;;;;;;;6.72;4.63;;;9.40;54.40;;;;;;10144073;28;20032;-67
2022/04/04 19:06:29;;;;;;;6.13;4.50;;;9.40;54.50;;;;;;10159791;28;20032;-64
2022/04/04 19:11:20;;;;;;;8.02;5.32;;;9.30;54.50;;;;;;10161321;28;20083;-62
2022/04/04 19:16:11;;;;;;;6.03;3.88;;;9.30;54.70;;;;;;10166804;28;20032;-64
2022/04/04 19:21:02;;;;;;;3.50;2.22;;;9.30;54.80;;;;;;10154807;28;20360;-61
2022/04/04 19:25:52;;;;;;;5.53;3.90;;;9.30;54.90;;;;;;10156709;28;20015;-61
2022/04/04 19:30:43;;;;;;;6.32;4.18;;;9.30;55.00;;;;;;10159949;28;20390;-63
2022/04/04 19:35:35;;;;;;;5.85;3.70;;;9.20;55.00;;;;;;10166109;28;20182;-64
2022/04/04 19:40:27;;;;;;;6.80;4.55;;;9.20;55.10;;;;;;10159200;28;20055;-63
2022/04/04 19:45:18;;;;;;;7.35;3.45;;;9.20;55.30;;;;;;10150445;28;20083;-66
2022/04/04 19:50:10;;;;;;;5.68;3.53;;;9.20;55.40;;;;;;10158703;28;20035;-65
2022/04/04 19:55:01;;;;;;;8.23;3.47;;;9.20;55.70;;;;;;10150059;28;20094;-67
2022/04/04 19:59:53;;;;;;;6.10;2.85;;;9.20;55.80;;;;;;10143031;28;20081;-67
2022/04/04 20:04:44;;;;;;;5.72;3.25;;;9.20;55.90;;;;;;10161360;28;20020;-65
2022/04/04 20:09:35;;;;;;;5.28;4.13;;;9.30;55.80;;;;;;10141160;28;20537;-65
2022/04/04 20:14:26;;;;;;;5.82;4.05;;;9.30;55.80;;;;;;10156698;28;20020;-65
2022/04/04 20:19:17;;;;;;;5.07;3.83;;;9.20;55.90;;;;;;10153864;28;20498;-65
2022/04/04 20:24:07;;;;;;;5.13;3.78;;;9.30;56.00;;;;;;10133355;28;20444;-65
2022/04/04 20:28:58;;;;;;;6.28;4.03;;;9.20;56.30;;;;;;10154243;28;20073;-68
2022/04/04 20:33:49;;;;;;;5.43;3.53;;;9.10;56.60;;;;;;10159273;28;20025;-67
2022/04/04 20:38:39;;;;;;;5.75;3.38;;;9.10;57.40;;;;;;10158262;28;20059;-66
2022/04/04 20:43:30;;;;;;;5.25;3.47;;;9.10;56.90;;;;;;10150407;28;20047;-66
2022/04/04 20:48:22;;;;;;;5.35;3.60;;;9.10;56.90;;;;;;10164917;28;20097;-66
2022/04/04 20:53:13;;;;;;;7.10;3.38;;;9.20;57.00;;;;;;10162035;28;20021;-66
2022/04/04 20:58:03;;;;;;;6.28;3.92;;;9.20;57.00;;;;;;10159906;28;20040;-67
2022/04/04 21:02:54;;;;;;;7.13;3.15;;;9.10;57.10;;;;;;10173427;28;20058;-71
2022/04/04 21:07:45;;;;;;;5.93;3.13;;;9.10;57.20;;;;;;10164558;28;20032;-65
2022/04/04 21:12:35;;;;;;;5.60;4.13;;;9.10;57.40;;;;;;10164547;28;20024;-66
2022/04/04 21:17:26;;;;;;;4.07;3.20;;;9.10;57.40;;;;;;10150259;28;20027;-66
2022/04/04 21:22:18;;;;;;;4.65;3.55;;;9.10;57.40;;;;;;10162467;28;20020;-67
2022/04/04 21:27:10;;;;;;;7.70;3.58;;;9.10;57.60;;;;;;10149632;28;20024;-66
2022/04/04 21:32:01;;;;;;;5.93;3.50;;;9.10;57.60;;;;;;10167527;28;20091;-65
2022/04/04 21:36:52;;;;;;;4.93;3.05;;;9.10;57.80;;;;;;10170240;28;20093;-65
2022/04/04 21:41:44;;;;;;;8.68;3.92;;;9.10;57.90;;;;;;10156124;28;20036;-65
2022/04/04 21:46:34;;;;;;;6.72;3.50;;;9.10;57.90;;;;;;10144490;28;20849;-65
2022/04/04 21:51:26;;;;;;;5.43;3.50;;;9.10;58.10;;;;;;10145415;28;20024;-65
2022/04/04 21:56:17;;;;;;;3.45;2.55;;;9.00;58.30;;;;;;10151822;28;20028;-65
2022/04/04 22:01:07;;;;;;;5.50;3.13;;;9.00;58.50;;;;;;10147988;28;20036;-64
2022/04/04 22:05:58;;;;;;;4.85;3.33;;;9.00;58.60;;;;;;10167675;28;20588;-64
2022/04/04 22:10:49;;;;;;;4.68;2.67;;;9.00;58.60;;;;;;10148690;28;20032;-65
2022/04/04 22:15:40;;;;;;;5.63;3.10;;;9.00;58.60;;;;;;10164093;28;20390;-63
2022/04/04 22:20:31;;;;;;;5.25;3.13;;;9.10;58.60;;;;;;10147492;28;20518;-63
2022/04/04 22:25:22;;;;;;;6.65;2.70;;;9.10;58.60;;;;;;10161416;28;20041;-66
2022/04/04 22:30:13;;;;;;;4.45;2.65;;;9.10;58.70;;;;;;10154571;28;20039;-64
2022/04/04 22:35:04;;;;;;;4.15;3.00;;;9.00;58.90;;;;;;10167992;28;20100;-66
2022/04/04 22:39:55;;;;;;;4.95;3.08;;;9.00;58.80;;;;;;10162624;28;20040;-64
2022/04/04 22:44:46;;;;;;;3.80;3.05;;;9.00;59.00;;;;;;10131629;28;20028;-64
2022/04/04 22:49:36;;;;;;;5.15;3.13;;;9.00;59.10;;;;;;10156072;28;20326;-64
2022/04/04 22:54:27;;;;;;;5.82;3.80;;;8.90;59.20;;;;;;10161873;28;20058;-64
2022/04/04 22:59:18;;;;;;;3.72;3.00;;;8.90;59.40;;;;;;10157132;28;20036;-65
2022/04/04 23:04:08;;;;;;;7.53;3.42;;;8.90;59.40;;;;;;10147380;28;20084;-64
2022/04/04 23:08:59;;;;;;;5.60;3.45;;;8.90;59.40;;;;;;10149377;28;20112;-63
2022/04/04 23:13:50;;;;;;;5.10;3.10;;;8.90;59.50;;;;;;10156778;28;20020;-63
2022/04/04 23:18:41;;;;;;;6.65;3.00;;;8.90;59.50;;;;;;10137960;28;20044;-64
2022/04/04 23:23:32;;;;;;;4.90;2.78;;;8.80;59.60;;;;;;10147671;28;20039;-63
2022/04/04 23:28:23;;;;;;;5.40;2.95;;;8.80;59.80;;;;;;10149397;28;20036;-64
2022/04/04 23:33:13;;;;;;;5.72;2.67;;;8.80;59.90;;;;;;10162801;28;20033;-63
2022/04/04 23:38:04;;;;;;;4.40;2.35;;;8.80;60.00;;;;;;10162510;28;20044;-63
2022/04/04 23:42:55;;;;;;;4.82;2.72;;;8.80;60.10;;;;;;10153023;28;20043;-64
2022/04/04 23:47:46;;;;;;;6.45;3.35;;;8.80;60.30;;;;;;10158469;28;20032;-64
2022/04/04 23:52:37;;;;;;;4.35;3.05;;;8.80;60.40;;;;;;10145885;28;20111;-64
2022/04/04 23:57:28;;;;;;;6.07;3.05;;;8.70;60.70;;;;;;10141943;28;20479;-64
